Elmendorf Air Force Base (EDF/PAED)



No chart available
Flight Aircraft Arriving
CMB8475
KDOV - Dover Air Force Base
United StatesDelaware Dover, Delaware
CMB8620
RODN - Kadena Air Base
Japan Kadena, Japan
CMB8621
KTCM - McChord Air Force Base
United States Tacoma,
CMB8665
KSUU - Travis Air Force Base
United StatesCalifornia Fairfield, California
Flight Aircraft Departing
CMB8476
KDOV - Dover Air Force Base
United StatesDelaware Dover, Delaware
CMB8618
RODN - Kadena Air Base
Japan Kadena, Japan
CMB8631
KTCM - McChord Air Force Base
United States Tacoma,
CMB8639
RJTY - Yokota AFB
Japan Fussa, Japan


Airport Information
Location: Elmendorf, Alaska
Coordinates: 61.2514 / -149.807
Field Elevation: 211ft
Longest Runway: 9,974ft
ILS Approaches: YES
Landing Fees: $593 per flight
Jet A Price: $0.77/lbs
Charts:

Current Weather
METAR:
Not available
TAF: TAF PAED 271800Z 2718/2824 01009KT 9999 SCT200 QNH2977INS TEMPO 2801/2805 02012G18KT BECMG 2807/2808 VRB06KT 9999 FEW200 QNH2980INS TX21/2802Z TN07/2814Z

Recent Arrivals
Date Flight Type Depart
03/14/2019 CMB839 B752 Yokota AFB (RJTY)
Recent Departures
Date Flight Type Arrive
03/18/2019 CMB865 B752 Travis Air Force Base (KSUU)